OAL181 LGIR-LGKR
Flight info
| Callsign | OAL181 |
|---|---|
| Flight time | 1h 5m |
| Altitude | 32000 |
| Route | EPALO M749 DIRMI UL613 KOR UL53 PARNA |
| Aircraft | A320/M-SDE3FGHIRWY/LB1 |
Departure
| Time | 2026-05-01 08:47 |
|---|---|
| Airport | Heraklion International Nikos Kazantzakis Airport (LGIR) |
Arrival
| Time | 2026-05-01 09:53 |
|---|---|
| Airport | Corfu Ioannis Kapodistrias International Airport (LGKR) |
| Time | Latitude | Longitude | Altitude | Speed | Heading |
|---|---|---|---|---|---|
| 2026-05-01 08:28 | 35.33898 | 25.17052 | 90 ft | 0 kts | 315° |
| 2026-05-01 08:39 | 35.33905 | 25.17047 | 90 ft | 4 kts | 326° |
| 2026-05-01 08:39 | 35.33934 | 25.17074 | 90 ft | 9 kts | 59° |
| 2026-05-01 08:39 | 35.33938 | 25.17159 | 90 ft | 7 kts | 89° |
| 2026-05-01 08:39 | 35.33938 | 25.17181 | 90 ft | 0 kts | 89° |
| 2026-05-01 08:40 | 35.33931 | 25.17183 | 90 ft | 1 kts | 169° |
| 2026-05-01 08:40 | 35.33928 | 25.17175 | 90 ft | 1 kts | 240° |
| 2026-05-01 08:40 | 35.33932 | 25.17161 | 90 ft | 4 kts | 280° |
| 2026-05-01 08:41 | 35.33937 | 25.17118 | 90 ft | 5 kts | 276° |
| 2026-05-01 08:41 | 35.33939 | 25.17085 | 90 ft | 3 kts | 275° |
| 2026-05-01 08:41 | 35.33941 | 25.17065 | 90 ft | 2 kts | 275° |
| 2026-05-01 08:41 | 35.33941 | 25.17057 | 90 ft | 0 kts | 275° |
| 2026-05-01 08:42 | 35.33942 | 25.17044 | 92 ft | 5 kts | 275° |
| 2026-05-01 08:42 | 35.33946 | 25.16998 | 90 ft | 5 kts | 275° |
| 2026-05-01 08:42 | 35.33948 | 25.16966 | 90 ft | 3 kts | 275° |
| 2026-05-01 08:43 | 35.33949 | 25.16950 | 90 ft | 1 kts | 275° |
| 2026-05-01 08:43 | 35.33951 | 25.16922 | 90 ft | 7 kts | 275° |
| 2026-05-01 08:43 | 35.33958 | 25.16837 | 91 ft | 11 kts | 276° |
| 2026-05-01 08:43 | 35.33971 | 25.16757 | 92 ft | 9 kts | 290° |
| 2026-05-01 08:44 | 35.33998 | 25.16700 | 93 ft | 7 kts | 302° |
| 2026-05-01 08:44 | 35.34021 | 25.16657 | 92 ft | 5 kts | 304° |
| 2026-05-01 08:44 | 35.34038 | 25.16629 | 92 ft | 4 kts | 305° |
| 2026-05-01 08:44 | 35.34064 | 25.16577 | 92 ft | 10 kts | 295° |
| 2026-05-01 08:45 | 35.34084 | 25.16470 | 92 ft | 16 kts | 280° |
| 2026-05-01 08:45 | 35.34099 | 25.16313 | 92 ft | 16 kts | 274° |
| 2026-05-01 08:45 | 35.34122 | 25.16184 | 92 ft | 10 kts | 296° |
| 2026-05-01 08:45 | 35.34110 | 25.16151 | 94 ft | 2 kts | 165° |
| 2026-05-01 08:46 | 35.34106 | 25.16167 | 92 ft | 4 kts | 88° |
| 2026-05-01 08:46 | 35.34100 | 25.16222 | 91 ft | 10 kts | 93° |
| 2026-05-01 08:46 | 35.34100 | 25.16232 | 91 ft | 0 kts | 93° |
| 2026-05-01 08:46 | 35.34100 | 25.16237 | 91 ft | 10 kts | 93° |
| 2026-05-01 08:47 | 35.34078 | 25.16643 | 91 ft | 83 kts | 94° |
| 2026-05-01 08:47 | 35.34019 | 25.17603 | 92 ft | 137 kts | 91° |
| 2026-05-01 08:47 | 35.33981 | 25.18823 | 430 ft | 148 kts | 89° |
| 2026-05-01 08:47 | 35.33904 | 25.20178 | 829 ft | 166 kts | 92° |
| 2026-05-01 08:48 | 35.33845 | 25.21653 | 1329 ft | 174 kts | 84° |
| 2026-05-01 08:48 | 35.34248 | 25.23004 | 1955 ft | 173 kts | 48° |
| 2026-05-01 08:48 | 35.35278 | 25.23848 | 2262 ft | 192 kts | 13° |
| 2026-05-01 08:48 | 35.36644 | 25.23714 | 2669 ft | 206 kts | 335° |
| 2026-05-01 08:49 | 35.37691 | 25.22519 | 3022 ft | 214 kts | 297° |
| 2026-05-01 08:49 | 35.38304 | 25.20842 | 3770 ft | 215 kts | 293° |
| 2026-05-01 08:49 | 35.38908 | 25.19167 | 4630 ft | 215 kts | 292° |
| 2026-05-01 08:49 | 35.39517 | 25.17484 | 5435 ft | 217 kts | 292° |
| 2026-05-01 08:50 | 35.40318 | 25.15909 | 6242 ft | 222 kts | 314° |
| 2026-05-01 08:50 | 35.41666 | 25.14879 | 6791 ft | 242 kts | 335° |
| 2026-05-01 08:50 | 35.43312 | 25.14096 | 7168 ft | 265 kts | 336° |
| 2026-05-01 08:50 | 35.45078 | 25.13287 | 7863 ft | 274 kts | 336° |
| 2026-05-01 08:51 | 35.46877 | 25.12472 | 8701 ft | 277 kts | 335° |
| 2026-05-01 08:51 | 35.48687 | 25.11647 | 9561 ft | 280 kts | 335° |
| 2026-05-01 08:51 | 35.50523 | 25.10805 | 10320 ft | 286 kts | 334° |
| 2026-05-01 08:51 | 35.52461 | 25.09905 | 10561 ft | 309 kts | 334° |
| 2026-05-01 08:52 | 35.54553 | 25.08929 | 10819 ft | 329 kts | 335° |
| 2026-05-01 08:52 | 35.56716 | 25.07929 | 11414 ft | 336 kts | 335° |
| 2026-05-01 08:52 | 35.58916 | 25.06916 | 12111 ft | 340 kts | 335° |
| 2026-05-01 08:52 | 35.61144 | 25.05885 | 12832 ft | 342 kts | 334° |
| 2026-05-01 08:53 | 35.63377 | 25.04846 | 13550 ft | 346 kts | 334° |
| 2026-05-01 08:53 | 35.65635 | 25.03791 | 14217 ft | 349 kts | 334° |
| 2026-05-01 08:53 | 35.67909 | 25.02726 | 14837 ft | 352 kts | 334° |
| 2026-05-01 08:53 | 35.70208 | 25.01649 | 15449 ft | 355 kts | 334° |
| 2026-05-01 08:54 | 35.72521 | 25.00567 | 16054 ft | 358 kts | 334° |
| 2026-05-01 08:54 | 35.74863 | 24.99470 | 16650 ft | 361 kts | 334° |
| 2026-05-01 08:54 | 35.77220 | 24.98364 | 17254 ft | 364 kts | 334° |
| 2026-05-01 08:54 | 35.79598 | 24.97250 | 17866 ft | 368 kts | 334° |
| 2026-05-01 08:55 | 35.82000 | 24.96122 | 18467 ft | 371 kts | 334° |
| 2026-05-01 08:55 | 35.84426 | 24.94981 | 19042 ft | 374 kts | 334° |
| 2026-05-01 08:55 | 35.86864 | 24.93837 | 19653 ft | 376 kts | 333° |
| 2026-05-01 08:55 | 35.89315 | 24.92687 | 20271 ft | 378 kts | 333° |
| 2026-05-01 08:56 | 35.91778 | 24.91529 | 20883 ft | 380 kts | 333° |
| 2026-05-01 08:56 | 35.94253 | 24.90362 | 21471 ft | 382 kts | 333° |
| 2026-05-01 08:56 | 35.96771 | 24.89169 | 22046 ft | 383 kts | 333° |
| 2026-05-01 08:56 | 35.99258 | 24.87986 | 22588 ft | 385 kts | 332° |
| 2026-05-01 08:57 | 36.01768 | 24.86789 | 23134 ft | 387 kts | 332° |
| 2026-05-01 08:57 | 36.04269 | 24.85558 | 23643 ft | 387 kts | 328° |
| 2026-05-01 08:57 | 36.06598 | 24.83934 | 24067 ft | 382 kts | 319° |
| 2026-05-01 08:57 | 36.08693 | 24.81932 | 24505 ft | 380 kts | 316° |
| 2026-05-01 08:58 | 36.10756 | 24.79887 | 24935 ft | 381 kts | 316° |
| 2026-05-01 08:58 | 36.12833 | 24.77827 | 25366 ft | 382 kts | 316° |
| 2026-05-01 08:58 | 36.14908 | 24.75771 | 25792 ft | 383 kts | 316° |
| 2026-05-01 08:58 | 36.16995 | 24.73702 | 26210 ft | 385 kts | 315° |
| 2026-05-01 08:59 | 36.19084 | 24.71626 | 26631 ft | 386 kts | 315° |
| 2026-05-01 08:59 | 36.21183 | 24.69538 | 27031 ft | 387 kts | 315° |
| 2026-05-01 08:59 | 36.23278 | 24.67451 | 27443 ft | 388 kts | 315° |
| 2026-05-01 08:59 | 36.25384 | 24.65353 | 27854 ft | 389 kts | 315° |
| 2026-05-01 09:00 | 36.27503 | 24.63246 | 28261 ft | 390 kts | 315° |
| 2026-05-01 09:00 | 36.29623 | 24.61138 | 28667 ft | 391 kts | 315° |
| 2026-05-01 09:00 | 36.31742 | 24.59030 | 29046 ft | 393 kts | 315° |
| 2026-05-01 09:00 | 36.33881 | 24.56898 | 29438 ft | 394 kts | 315° |
| 2026-05-01 09:01 | 36.36016 | 24.54763 | 29826 ft | 394 kts | 315° |
| 2026-05-01 09:01 | 36.38138 | 24.52640 | 30341 ft | 392 kts | 315° |
| 2026-05-01 09:01 | 36.40259 | 24.50518 | 30805 ft | 389 kts | 315° |
| 2026-05-01 09:01 | 36.42360 | 24.48416 | 31243 ft | 387 kts | 315° |
| 2026-05-01 09:02 | 36.44450 | 24.46322 | 31694 ft | 386 kts | 315° |
| 2026-05-01 09:02 | 36.46538 | 24.44231 | 32037 ft | 385 kts | 315° |
| 2026-05-01 09:02 | 36.50686 | 24.40060 | 32131 ft | 383 kts | 315° |
| 2026-05-01 09:03 | 36.54828 | 24.35895 | 32119 ft | 382 kts | 314° |
| 2026-05-01 09:03 | 36.58962 | 24.31732 | 32124 ft | 382 kts | 314° |
| 2026-05-01 09:04 | 36.63086 | 24.27573 | 32122 ft | 382 kts | 314° |
| 2026-05-01 09:04 | 36.67206 | 24.23414 | 32130 ft | 382 kts | 314° |
| 2026-05-01 09:05 | 36.71338 | 24.19240 | 32138 ft | 382 kts | 314° |
| 2026-05-01 09:05 | 36.75462 | 24.15072 | 32148 ft | 382 kts | 314° |
| 2026-05-01 09:06 | 36.79581 | 24.10894 | 32150 ft | 382 kts | 314° |
| 2026-05-01 09:06 | 36.83697 | 24.06719 | 32155 ft | 381 kts | 314° |
| 2026-05-01 09:07 | 36.87815 | 24.02538 | 32155 ft | 381 kts | 314° |
| 2026-05-01 09:07 | 36.91918 | 23.98353 | 32158 ft | 381 kts | 314° |
| 2026-05-01 09:08 | 36.96024 | 23.94170 | 32164 ft | 381 kts | 314° |
| 2026-05-01 09:08 | 37.00125 | 23.89991 | 32165 ft | 380 kts | 314° |
| 2026-05-01 09:09 | 37.04236 | 23.85797 | 32166 ft | 380 kts | 314° |
| 2026-05-01 09:09 | 37.08327 | 23.81618 | 32165 ft | 380 kts | 314° |
| 2026-05-01 09:10 | 37.12420 | 23.77423 | 32168 ft | 380 kts | 314° |
| 2026-05-01 09:10 | 37.16514 | 23.73217 | 32172 ft | 380 kts | 314° |
| 2026-05-01 09:11 | 37.20608 | 23.69013 | 32164 ft | 380 kts | 314° |
| 2026-05-01 09:11 | 37.24030 | 23.65498 | 32171 ft | 380 kts | 314° |
| 2026-05-01 09:12 | 37.28111 | 23.61289 | 32169 ft | 380 kts | 314° |
| 2026-05-01 09:12 | 37.32196 | 23.57079 | 32173 ft | 379 kts | 314° |
| 2026-05-01 09:13 | 37.36278 | 23.52866 | 32172 ft | 380 kts | 314° |
| 2026-05-01 09:13 | 37.40354 | 23.48647 | 32175 ft | 379 kts | 314° |
| 2026-05-01 09:14 | 37.44429 | 23.44428 | 32175 ft | 380 kts | 313° |
| 2026-05-01 09:14 | 37.48507 | 23.40201 | 32177 ft | 380 kts | 314° |
| 2026-05-01 09:15 | 37.52576 | 23.35973 | 32179 ft | 379 kts | 313° |
| 2026-05-01 09:15 | 37.56683 | 23.31709 | 32179 ft | 379 kts | 314° |
| 2026-05-01 09:16 | 37.60743 | 23.27483 | 32181 ft | 379 kts | 313° |
| 2026-05-01 09:17 | 37.66835 | 23.21111 | 32187 ft | 379 kts | 313° |
| 2026-05-01 09:17 | 37.72927 | 23.14744 | 32190 ft | 379 kts | 313° |
| 2026-05-01 09:18 | 37.79003 | 23.08367 | 32192 ft | 379 kts | 313° |
| 2026-05-01 09:19 | 37.85079 | 23.01981 | 32193 ft | 378 kts | 313° |
| 2026-05-01 09:20 | 37.91140 | 22.95597 | 32198 ft | 378 kts | 313° |
| 2026-05-01 09:20 | 37.94611 | 22.90772 | 32205 ft | 367 kts | 300° |
| 2026-05-01 09:21 | 37.97542 | 22.85435 | 32184 ft | 366 kts | 300° |
| 2026-05-01 09:21 | 38.01901 | 22.77510 | 32193 ft | 367 kts | 300° |
| 2026-05-01 09:22 | 38.07741 | 22.66863 | 32195 ft | 366 kts | 300° |
| 2026-05-01 09:23 | 38.12114 | 22.58890 | 32208 ft | 366 kts | 300° |
| 2026-05-01 09:24 | 38.16462 | 22.50916 | 32206 ft | 366 kts | 300° |
| 2026-05-01 09:25 | 38.22248 | 22.40281 | 32200 ft | 366 kts | 300° |
| 2026-05-01 09:26 | 38.26581 | 22.32305 | 32197 ft | 365 kts | 300° |
| 2026-05-01 09:26 | 38.30907 | 22.24323 | 32193 ft | 365 kts | 300° |
| 2026-05-01 09:27 | 38.35239 | 22.16308 | 32192 ft | 365 kts | 300° |
| 2026-05-01 09:28 | 38.38096 | 22.11003 | 32188 ft | 364 kts | 300° |
| 2026-05-01 09:28 | 38.40980 | 22.05640 | 32179 ft | 365 kts | 300° |
| 2026-05-01 09:29 | 38.45280 | 21.97637 | 32177 ft | 365 kts | 300° |
| 2026-05-01 09:30 | 38.49587 | 21.89612 | 32158 ft | 365 kts | 300° |
| 2026-05-01 09:30 | 38.53880 | 21.81566 | 32161 ft | 366 kts | 300° |
| 2026-05-01 09:31 | 38.56743 | 21.76189 | 32152 ft | 366 kts | 300° |
| 2026-05-01 09:32 | 38.61036 | 21.68125 | 32150 ft | 366 kts | 300° |
| 2026-05-01 09:32 | 38.65318 | 21.60051 | 31976 ft | 367 kts | 300° |
| 2026-05-01 09:33 | 38.66752 | 21.57339 | 31724 ft | 367 kts | 300° |
| 2026-05-01 09:33 | 38.68187 | 21.54627 | 31462 ft | 369 kts | 300° |
| 2026-05-01 09:33 | 38.71063 | 21.49190 | 30976 ft | 369 kts | 300° |
| 2026-05-01 09:34 | 38.72520 | 21.46431 | 30728 ft | 369 kts | 300° |
| 2026-05-01 09:34 | 38.73958 | 21.43703 | 30478 ft | 370 kts | 300° |
| 2026-05-01 09:34 | 38.76840 | 21.38233 | 29963 ft | 370 kts | 300° |
| 2026-05-01 09:35 | 38.78273 | 21.35511 | 29677 ft | 369 kts | 300° |
| 2026-05-01 09:35 | 38.81132 | 21.30076 | 28960 ft | 364 kts | 300° |
| 2026-05-01 09:35 | 38.82535 | 21.27413 | 28365 ft | 360 kts | 300° |
| 2026-05-01 09:36 | 38.83939 | 21.24748 | 27757 ft | 357 kts | 300° |
| 2026-05-01 09:36 | 38.85319 | 21.22121 | 27171 ft | 354 kts | 300° |
| 2026-05-01 09:36 | 38.86690 | 21.19506 | 26586 ft | 352 kts | 300° |
| 2026-05-01 09:36 | 38.88043 | 21.16915 | 26003 ft | 350 kts | 300° |
| 2026-05-01 09:37 | 38.89398 | 21.14319 | 25431 ft | 349 kts | 300° |
| 2026-05-01 09:37 | 38.92090 | 21.09154 | 24304 ft | 348 kts | 300° |
| 2026-05-01 09:37 | 38.93434 | 21.06572 | 23752 ft | 349 kts | 300° |
| 2026-05-01 09:38 | 38.96128 | 21.01397 | 22641 ft | 347 kts | 300° |
| 2026-05-01 09:38 | 38.97465 | 20.98825 | 22139 ft | 345 kts | 300° |
| 2026-05-01 09:38 | 38.98800 | 20.96256 | 21652 ft | 343 kts | 300° |
| 2026-05-01 09:39 | 39.01438 | 20.91179 | 20678 ft | 344 kts | 300° |
| 2026-05-01 09:39 | 39.02772 | 20.88608 | 20199 ft | 345 kts | 301° |
| 2026-05-01 09:39 | 39.04073 | 20.86104 | 19731 ft | 330 kts | 301° |
| 2026-05-01 09:40 | 39.05336 | 20.83670 | 19270 ft | 327 kts | 301° |
| 2026-05-01 09:40 | 39.07840 | 20.78820 | 18358 ft | 324 kts | 301° |
| 2026-05-01 09:40 | 39.09085 | 20.76407 | 17844 ft | 322 kts | 301° |
| 2026-05-01 09:41 | 39.10335 | 20.73986 | 17330 ft | 321 kts | 301° |
| 2026-05-01 09:41 | 39.12799 | 20.69203 | 16339 ft | 320 kts | 302° |
| 2026-05-01 09:41 | 39.14026 | 20.66819 | 15847 ft | 319 kts | 302° |
| 2026-05-01 09:42 | 39.15246 | 20.64442 | 15371 ft | 318 kts | 302° |
| 2026-05-01 09:42 | 39.16470 | 20.62063 | 14897 ft | 318 kts | 302° |
| 2026-05-01 09:42 | 39.18909 | 20.57314 | 13977 ft | 317 kts | 303° |
| 2026-05-01 09:43 | 39.20938 | 20.53362 | 13133 ft | 318 kts | 303° |
| 2026-05-01 09:43 | 39.22152 | 20.50994 | 12631 ft | 318 kts | 303° |
| 2026-05-01 09:43 | 39.23372 | 20.48611 | 12123 ft | 317 kts | 302° |
| 2026-05-01 09:44 | 39.25789 | 20.43883 | 11172 ft | 316 kts | 302° |
| 2026-05-01 09:44 | 39.26997 | 20.41519 | 10698 ft | 315 kts | 302° |
| 2026-05-01 09:44 | 39.28217 | 20.39130 | 10235 ft | 314 kts | 302° |
| 2026-05-01 09:45 | 39.29424 | 20.36766 | 9747 ft | 315 kts | 302° |
| 2026-05-01 09:45 | 39.31817 | 20.32065 | 8750 ft | 315 kts | 302° |
| 2026-05-01 09:45 | 39.33010 | 20.29718 | 8251 ft | 306 kts | 302° |
| 2026-05-01 09:46 | 39.34170 | 20.27439 | 7753 ft | 294 kts | 302° |
| 2026-05-01 09:46 | 39.35261 | 20.25295 | 7289 ft | 284 kts | 303° |
| 2026-05-01 09:46 | 39.36341 | 20.23168 | 6808 ft | 276 kts | 303° |
| 2026-05-01 09:46 | 39.37382 | 20.21120 | 6345 ft | 270 kts | 303° |
| 2026-05-01 09:47 | 39.38403 | 20.19110 | 5852 ft | 264 kts | 303° |
| 2026-05-01 09:47 | 39.39401 | 20.17145 | 5366 ft | 260 kts | 303° |
| 2026-05-01 09:47 | 39.40367 | 20.15240 | 4904 ft | 256 kts | 303° |
| 2026-05-01 09:47 | 39.41337 | 20.13324 | 4405 ft | 254 kts | 303° |
| 2026-05-01 09:48 | 39.42303 | 20.11415 | 3915 ft | 253 kts | 304° |
| 2026-05-01 09:48 | 39.43257 | 20.09528 | 3543 ft | 247 kts | 304° |
| 2026-05-01 09:48 | 39.44026 | 20.07569 | 3176 ft | 245 kts | 285° |
| 2026-05-01 09:48 | 39.44140 | 20.05400 | 2788 ft | 242 kts | 261° |
| 2026-05-01 09:49 | 39.43851 | 20.03260 | 2314 ft | 239 kts | 259° |
| 2026-05-01 09:49 | 39.43566 | 20.01180 | 1998 ft | 229 kts | 261° |
| 2026-05-01 09:49 | 39.43296 | 19.99207 | 1981 ft | 215 kts | 260° |
| 2026-05-01 09:49 | 39.43158 | 19.97355 | 1965 ft | 200 kts | 283° |
| 2026-05-01 09:50 | 39.43863 | 19.95933 | 1982 ft | 188 kts | 332° |
| 2026-05-01 09:50 | 39.45071 | 19.95337 | 1993 ft | 186 kts | 348° |
| 2026-05-01 09:50 | 39.46331 | 19.94971 | 1984 ft | 186 kts | 350° |
| 2026-05-01 09:50 | 39.47607 | 19.94647 | 1881 ft | 182 kts | 350° |
| 2026-05-01 09:51 | 39.48825 | 19.94339 | 1608 ft | 181 kts | 350° |
| 2026-05-01 09:51 | 39.50081 | 19.94009 | 1290 ft | 182 kts | 349° |
| 2026-05-01 09:51 | 39.51319 | 19.93676 | 1014 ft | 182 kts | 349° |
| 2026-05-01 09:51 | 39.52537 | 19.93344 | 927 ft | 180 kts | 349° |
| 2026-05-01 09:52 | 39.53721 | 19.93015 | 960 ft | 170 kts | 349° |
| 2026-05-01 09:52 | 39.54874 | 19.92692 | 971 ft | 166 kts | 349° |
| 2026-05-01 09:52 | 39.56019 | 19.92368 | 675 ft | 167 kts | 349° |
| 2026-05-01 09:52 | 39.57091 | 19.91962 | 468 ft | 154 kts | 348° |
| 2026-05-01 09:53 | 39.58106 | 19.91746 | 326 ft | 142 kts | 355° |
| 2026-05-01 09:53 | 39.59044 | 19.91509 | 62 ft | 134 kts | 352° |
| 2026-05-01 09:53 | 39.59748 | 19.91353 | 20 ft | 45 kts | 347° |
| 2026-05-01 09:53 | 39.59913 | 19.91301 | 22 ft | 21 kts | 348° |
| 2026-05-01 09:54 | 39.60058 | 19.91271 | 21 ft | 22 kts | 353° |
| 2026-05-01 09:54 | 39.60230 | 19.91220 | 23 ft | 21 kts | 344° |
| 2026-05-01 09:54 | 39.60357 | 19.91177 | 20 ft | 20 kts | 346° |
| 2026-05-01 09:54 | 39.60486 | 19.91152 | 19 ft | 22 kts | 3° |
| 2026-05-01 09:55 | 39.60605 | 19.91206 | 20 ft | 13 kts | 23° |
| 2026-05-01 09:55 | 39.60655 | 19.91226 | 18 ft | 7 kts | 7° |
| 2026-05-01 09:55 | 39.60686 | 19.91248 | 20 ft | 9 kts | 56° |
| 2026-05-01 09:55 | 39.60706 | 19.91339 | 18 ft | 6 kts | 78° |
| 2026-05-01 09:56 | 39.60708 | 19.91354 | 18 ft | 0 kts | 78° |